Stanhope, NJ (07874)

5:12 AM EDT on March 23, 2017 (GMT -0400)
Stanhope,NJ | | Change Station

Elev 970 ft 40.91 °N, 74.70 °W | Updated 37 seconds ago

Clear
Clear
14.7 °F
Feels Like 15 °F
N
0.0
Wind Variable Wind from NE
Gusts 1.0 mph

Today
High -- | Low -- °F
--% Chance of Precip.
Yesterday
High -- | Low -- °F
Precip. -- in
Pressure 30.51 in
Visibility 10.0 miles
Clouds Clear
Windchill 15 °F
Dew Point 6 °F
Humidity 69%
Rainfall 0.00 in
Snow Depth Not available.
6:56 AM 7:14 PM
Waning Crescent, 25% visible
METAR KMMU 230855Z AUTO 31003KT 10SM CLR M06/M14 A3051 RMK AO2
Pressure 30.51 in
Visibility 10.0 miles
Clouds Clear
Windchill 15 °F
Dew Point 6 °F
Humidity 69%
Rainfall 0.00 in
Snow Depth Not available.
6:56 AM 7:14 PM
Waning Crescent, 25% visible
METAR KMMU 230855Z AUTO 31003KT 10SM CLR M06/M14 A3051 RMK AO2

Get Severe Weather Alerts

Thanks for signing up!

Be on the lookout for a verification email in your inbox.

You'll start receiving the daily forecast at 8 AM.

×

10-Day Weather Forecast

Almanac

Astronomy

Mar. 23, 2017 Rise Set
Actual Time
Civil Twilight
Nautical Twilight
Astronomical Twilight
Moon
Length of Visible Light
Length of Day
Tomorrow will be .
, % of the Moon is Illuminated

Today's Extremes

State Highs State Lows

Community

WunderPhotos

Upload Photos

1,962,540 photos uploaded!

WunderBlog® & News

Nearby

Air Quality

  Air Quality AQ Index Pollutant
Not available.

Snow Depth

Station Depth Elevation

Earthquake Activity

City Distance Mag. Time & Date
Minimum magnitude displayed is 2.5.

Earthquake Activity

City Distance Mag. Time & Date
Minimum magnitude displayed is 2.5.

Coastal Water Temperatures

Place Temperature

Stations

Nearby Weather Stations

Station Location Temp. Windchill Dew Point Humidity Wind Precip. Elev Updated Type
                   

Watches & Warnings

There are currently no watches in effect.